EZY34L EYVI-EHAM
Flight info
| Callsign | EZY34L |
|---|---|
| Flight time | N/A |
| Altitude | 38000 |
| Route | UPASI DCT TUNGA DCT SUWGI DCT ALUKA DCT NORKU |
| Aircraft | A20N/M-SDE2E3FGHIRWXY/LB1 |
Departure
| Time | 2026-05-05 19:44 |
|---|---|
| Airport | Vilnius International Airport (EYVI) |
Arrival
| Time | N/A |
|---|---|
| Airport | Amsterdam Airport Schiphol (EHAM) |
| Time | Latitude | Longitude | Altitude | Speed | Heading |
|---|---|---|---|---|---|
| 2026-05-05 19:14 | 54.64228 | 25.28198 | 647 ft | 0 kts | 358° |
| 2026-05-05 19:31 | 54.64225 | 25.28198 | 648 ft | 2 kts | 358° |
| 2026-05-05 19:31 | 54.64208 | 25.28198 | 647 ft | 2 kts | 0° |
| 2026-05-05 19:32 | 54.64191 | 25.28198 | 649 ft | 2 kts | 17° |
| 2026-05-05 19:32 | 54.64176 | 25.28184 | 648 ft | 2 kts | 48° |
| 2026-05-05 19:32 | 54.64168 | 25.28162 | 647 ft | 2 kts | 71° |
| 2026-05-05 19:32 | 54.64167 | 25.28157 | 649 ft | 0 kts | 78° |
| 2026-05-05 19:35 | 54.64169 | 25.28170 | 647 ft | 4 kts | 77° |
| 2026-05-05 19:36 | 54.64181 | 25.28264 | 646 ft | 7 kts | 77° |
| 2026-05-05 19:36 | 54.64182 | 25.28273 | 648 ft | 0 kts | 77° |
| 2026-05-05 19:36 | 54.64183 | 25.28276 | 648 ft | 2 kts | 77° |
| 2026-05-05 19:37 | 54.64172 | 25.28314 | 646 ft | 5 kts | 160° |
| 2026-05-05 19:37 | 54.64127 | 25.28344 | 646 ft | 10 kts | 145° |
| 2026-05-05 19:37 | 54.64121 | 25.28498 | 646 ft | 15 kts | 85° |
| 2026-05-05 19:37 | 54.64122 | 25.28657 | 649 ft | 5 kts | 130° |
| 2026-05-05 19:38 | 54.64092 | 25.28684 | 646 ft | 9 kts | 167° |
| 2026-05-05 19:38 | 54.63962 | 25.28710 | 643 ft | 5 kts | 173° |
| 2026-05-05 19:41 | 54.63959 | 25.28710 | 643 ft | 3 kts | 172° |
| 2026-05-05 19:41 | 54.63903 | 25.28723 | 642 ft | 15 kts | 172° |
| 2026-05-05 19:41 | 54.63784 | 25.28750 | 641 ft | 8 kts | 172° |
| 2026-05-05 19:42 | 54.63763 | 25.28823 | 640 ft | 10 kts | 38° |
| 2026-05-05 19:42 | 54.63864 | 25.28888 | 641 ft | 19 kts | 19° |
| 2026-05-05 19:42 | 54.64017 | 25.28984 | 645 ft | 26 kts | 21° |
| 2026-05-05 19:42 | 54.64191 | 25.29103 | 651 ft | 25 kts | 22° |
| 2026-05-05 19:43 | 54.64275 | 25.29157 | 655 ft | 4 kts | 10° |
| 2026-05-05 19:43 | 54.64302 | 25.29177 | 653 ft | 4 kts | 81° |
| 2026-05-05 19:43 | 54.64270 | 25.29167 | 656 ft | 9 kts | 213° |
| 2026-05-05 19:43 | 54.64217 | 25.29131 | 655 ft | 10 kts | 199° |
| 2026-05-05 19:44 | 54.64021 | 25.28994 | 645 ft | 72 kts | 201° |
| 2026-05-05 19:44 | 54.63276 | 25.28483 | 629 ft | 153 kts | 201° |
| 2026-05-05 19:44 | 54.62161 | 25.27696 | 1146 ft | 179 kts | 203° |
| 2026-05-05 19:44 | 54.60966 | 25.26773 | 2071 ft | 190 kts | 207° |
| 2026-05-05 19:45 | 54.59751 | 25.25785 | 3024 ft | 197 kts | 205° |
| 2026-05-05 19:45 | 54.58424 | 25.24897 | 3665 ft | 214 kts | 202° |
| 2026-05-05 19:45 | 54.56958 | 25.23978 | 4287 ft | 232 kts | 202° |
| 2026-05-05 19:45 | 54.55429 | 25.22998 | 5228 ft | 236 kts | 204° |
| 2026-05-05 19:46 | 54.54396 | 25.22321 | 6012 ft | 234 kts | 205° |
| 2026-05-05 19:46 | 54.52842 | 25.21285 | 7104 ft | 234 kts | 206° |
| 2026-05-05 19:46 | 54.51472 | 25.19926 | 8125 ft | 229 kts | 226° |
| 2026-05-05 19:46 | 54.50583 | 25.17699 | 9179 ft | 225 kts | 249° |
| 2026-05-05 19:47 | 54.50328 | 25.15442 | 10030 ft | 229 kts | 268° |
| 2026-05-05 19:47 | 54.50622 | 25.12665 | 10843 ft | 242 kts | 281° |
| 2026-05-05 19:47 | 54.51098 | 25.09708 | 11272 ft | 267 kts | 281° |
| 2026-05-05 19:47 | 54.51605 | 25.06491 | 11650 ft | 290 kts | 281° |
| 2026-05-05 19:48 | 54.52165 | 25.02920 | 11996 ft | 314 kts | 281° |
| 2026-05-05 19:48 | 54.52727 | 24.99202 | 12692 ft | 323 kts | 278° |
| 2026-05-05 19:48 | 54.52903 | 24.95332 | 13529 ft | 325 kts | 265° |
| 2026-05-05 19:48 | 54.52539 | 24.91510 | 14295 ft | 328 kts | 252° |
| 2026-05-05 19:49 | 54.51732 | 24.87690 | 15120 ft | 331 kts | 249° |
| 2026-05-05 19:49 | 54.50922 | 24.83962 | 15887 ft | 335 kts | 249° |
| 2026-05-05 19:49 | 54.50104 | 24.80167 | 16634 ft | 340 kts | 249° |
| 2026-05-05 19:49 | 54.49261 | 24.76254 | 17407 ft | 344 kts | 249° |
| 2026-05-05 19:50 | 54.48417 | 24.72341 | 18141 ft | 349 kts | 249° |
| 2026-05-05 19:50 | 54.47558 | 24.68365 | 18821 ft | 352 kts | 249° |
| 2026-05-05 19:50 | 54.46699 | 24.64399 | 19513 ft | 355 kts | 249° |
| 2026-05-05 19:50 | 54.45831 | 24.60399 | 20194 ft | 358 kts | 249° |
| 2026-05-05 19:51 | 54.44956 | 24.56377 | 20854 ft | 361 kts | 249° |
| 2026-05-05 19:51 | 54.44071 | 24.52318 | 21524 ft | 364 kts | 249° |
| 2026-05-05 19:51 | 54.43151 | 24.48109 | 22201 ft | 367 kts | 249° |
| 2026-05-05 19:51 | 54.42249 | 24.43993 | 22851 ft | 371 kts | 249° |
| 2026-05-05 19:52 | 54.41330 | 24.39806 | 23484 ft | 374 kts | 249° |
| 2026-05-05 19:52 | 54.40400 | 24.35576 | 24034 ft | 376 kts | 249° |
| 2026-05-05 19:52 | 54.39466 | 24.31337 | 24569 ft | 379 kts | 249° |
| 2026-05-05 19:52 | 54.38555 | 24.27108 | 25086 ft | 382 kts | 251° |
| 2026-05-05 19:53 | 54.37760 | 24.22606 | 25613 ft | 385 kts | 253° |
| 2026-05-05 19:53 | 54.36977 | 24.18121 | 26133 ft | 387 kts | 253° |
| 2026-05-05 19:53 | 54.36213 | 24.13768 | 26617 ft | 390 kts | 253° |
| 2026-05-05 19:53 | 54.35418 | 24.09257 | 27102 ft | 393 kts | 253° |
| 2026-05-05 19:54 | 54.34621 | 24.04752 | 27567 ft | 395 kts | 253° |
| 2026-05-05 19:54 | 54.33819 | 24.00239 | 28015 ft | 398 kts | 253° |
| 2026-05-05 19:54 | 54.33008 | 23.95683 | 28455 ft | 400 kts | 253° |
| 2026-05-05 19:54 | 54.32191 | 23.91101 | 28869 ft | 403 kts | 253° |
| 2026-05-05 19:55 | 54.31368 | 23.86505 | 29281 ft | 406 kts | 253° |
| 2026-05-05 19:55 | 54.30536 | 23.81864 | 29663 ft | 408 kts | 253° |
| 2026-05-05 19:55 | 54.29688 | 23.77147 | 30049 ft | 411 kts | 253° |
| 2026-05-05 19:55 | 54.28842 | 23.72454 | 30412 ft | 413 kts | 253° |
| 2026-05-05 19:56 | 54.28279 | 23.69340 | 30662 ft | 414 kts | 253° |
| 2026-05-05 19:56 | 54.27425 | 23.64623 | 31053 ft | 415 kts | 253° |
| 2026-05-05 19:56 | 54.26559 | 23.59854 | 31523 ft | 413 kts | 253° |
| 2026-05-05 19:56 | 54.25432 | 23.53666 | 32240 ft | 410 kts | 253° |
| 2026-05-05 19:57 | 54.24858 | 23.50526 | 32596 ft | 408 kts | 253° |
| 2026-05-05 19:57 | 54.24021 | 23.45950 | 33097 ft | 405 kts | 253° |
| 2026-05-05 19:57 | 54.23154 | 23.41331 | 33610 ft | 403 kts | 252° |
| 2026-05-05 19:57 | 54.22099 | 23.36899 | 34054 ft | 402 kts | 247° |
| 2026-05-05 19:58 | 54.20805 | 23.32643 | 34386 ft | 403 kts | 243° |
| 2026-05-05 19:58 | 54.19425 | 23.28403 | 34684 ft | 403 kts | 243° |
| 2026-05-05 19:58 | 54.18069 | 23.24207 | 34983 ft | 404 kts | 243° |
| 2026-05-05 19:58 | 54.16714 | 23.20010 | 35277 ft | 404 kts | 243° |
| 2026-05-05 19:59 | 54.15338 | 23.15753 | 35565 ft | 404 kts | 243° |
| 2026-05-05 19:59 | 54.13979 | 23.11558 | 35846 ft | 404 kts | 243° |
| 2026-05-05 19:59 | 54.12617 | 23.07359 | 36118 ft | 404 kts | 243° |
| 2026-05-05 19:59 | 54.11252 | 23.03159 | 36381 ft | 404 kts | 243° |
| 2026-05-05 20:00 | 54.09872 | 22.98922 | 36653 ft | 404 kts | 243° |
| 2026-05-05 20:00 | 54.08564 | 22.94717 | 36917 ft | 403 kts | 246° |
| 2026-05-05 20:00 | 54.07463 | 22.90239 | 37142 ft | 403 kts | 251° |
| 2026-05-05 20:00 | 54.06635 | 22.85678 | 37375 ft | 403 kts | 256° |
| 2026-05-05 20:01 | 54.06059 | 22.81012 | 37594 ft | 403 kts | 261° |
| 2026-05-05 20:01 | 54.05603 | 22.76223 | 37805 ft | 404 kts | 260° |
| 2026-05-05 20:01 | 54.05140 | 22.71510 | 37871 ft | 404 kts | 260° |
| 2026-05-05 20:02 | 54.04201 | 22.62045 | 37874 ft | 403 kts | 260° |
| 2026-05-05 20:02 | 54.03251 | 22.52513 | 37874 ft | 403 kts | 260° |
| 2026-05-05 20:03 | 54.02309 | 22.43116 | 37877 ft | 403 kts | 260° |
| 2026-05-05 20:03 | 54.01344 | 22.33587 | 37880 ft | 403 kts | 259° |
| 2026-05-05 20:04 | 54.00379 | 22.24181 | 37880 ft | 402 kts | 259° |
| 2026-05-05 20:04 | 53.99403 | 22.14754 | 37877 ft | 402 kts | 259° |
| 2026-05-05 20:05 | 53.98426 | 22.05391 | 37885 ft | 403 kts | 259° |
| 2026-05-05 20:05 | 53.97434 | 21.95950 | 37889 ft | 403 kts | 259° |
| 2026-05-05 20:06 | 53.96435 | 21.86529 | 37886 ft | 404 kts | 259° |
| 2026-05-05 20:06 | 53.95420 | 21.77028 | 37887 ft | 404 kts | 259° |
| 2026-05-05 20:07 | 53.94574 | 21.69159 | 37887 ft | 404 kts | 259° |
| 2026-05-05 20:07 | 53.93542 | 21.59636 | 37888 ft | 405 kts | 259° |
| 2026-05-05 20:08 | 53.92505 | 21.50142 | 37894 ft | 406 kts | 259° |
| 2026-05-05 20:08 | 53.91470 | 21.40738 | 37898 ft | 406 kts | 259° |
| 2026-05-05 20:09 | 53.90414 | 21.31216 | 37892 ft | 406 kts | 259° |
| 2026-05-05 20:09 | 53.89358 | 21.21767 | 37897 ft | 407 kts | 259° |
| 2026-05-05 20:10 | 53.88296 | 21.12328 | 37898 ft | 407 kts | 259° |
| 2026-05-05 20:10 | 53.87218 | 21.02820 | 37893 ft | 407 kts | 258° |
| 2026-05-05 20:11 | 53.86120 | 20.93215 | 37896 ft | 407 kts | 258° |
| 2026-05-05 20:11 | 53.85039 | 20.83824 | 37893 ft | 407 kts | 258° |
| 2026-05-05 20:12 | 53.83946 | 20.74397 | 37890 ft | 407 kts | 258° |
| 2026-05-05 20:12 | 53.82845 | 20.64975 | 37888 ft | 407 kts | 258° |
| 2026-05-05 20:13 | 53.81737 | 20.55554 | 37887 ft | 406 kts | 258° |
| 2026-05-05 20:13 | 53.80621 | 20.46144 | 37888 ft | 406 kts | 258° |
| 2026-05-05 20:14 | 53.79498 | 20.36733 | 37871 ft | 406 kts | 258° |
| 2026-05-05 20:14 | 53.78369 | 20.27344 | 37877 ft | 406 kts | 258° |
| 2026-05-05 20:15 | 53.77229 | 20.17925 | 37888 ft | 406 kts | 258° |
| 2026-05-05 20:15 | 53.76089 | 20.08574 | 37885 ft | 406 kts | 258° |
| 2026-05-05 20:16 | 53.74943 | 19.99234 | 37881 ft | 406 kts | 258° |
| 2026-05-05 20:16 | 53.73780 | 19.89826 | 37874 ft | 406 kts | 258° |
| 2026-05-05 20:17 | 53.72616 | 19.80470 | 37883 ft | 406 kts | 258° |
| 2026-05-05 20:17 | 53.71438 | 19.71073 | 37883 ft | 406 kts | 258° |
| 2026-05-05 20:18 | 53.70265 | 19.61772 | 37884 ft | 406 kts | 258° |
| 2026-05-05 20:18 | 53.69279 | 19.54001 | 37881 ft | 406 kts | 258° |
| 2026-05-05 20:19 | 53.68082 | 19.44625 | 37882 ft | 406 kts | 258° |
| 2026-05-05 20:19 | 53.66877 | 19.35248 | 37883 ft | 407 kts | 258° |
| 2026-05-05 20:20 | 53.65639 | 19.25687 | 37883 ft | 407 kts | 258° |
| 2026-05-05 20:20 | 53.64403 | 19.16194 | 37893 ft | 407 kts | 257° |
| 2026-05-05 20:21 | 53.63167 | 19.06770 | 37888 ft | 408 kts | 257° |
| 2026-05-05 20:21 | 53.61918 | 18.97303 | 37885 ft | 408 kts | 257° |
| 2026-05-05 20:22 | 53.60675 | 18.87955 | 37898 ft | 408 kts | 257° |
| 2026-05-05 20:22 | 53.59418 | 18.78554 | 37900 ft | 408 kts | 257° |
| 2026-05-05 20:23 | 53.58165 | 18.69243 | 37892 ft | 408 kts | 257° |
| 2026-05-05 20:23 | 53.56900 | 18.59901 | 37888 ft | 408 kts | 257° |
| 2026-05-05 20:24 | 53.55628 | 18.50570 | 37891 ft | 408 kts | 257° |
| 2026-05-05 20:24 | 53.54358 | 18.41308 | 37881 ft | 408 kts | 257° |
| 2026-05-05 20:25 | 53.53071 | 18.31984 | 37884 ft | 407 kts | 257° |
| 2026-05-05 20:25 | 53.51770 | 18.22617 | 37882 ft | 407 kts | 257° |
| 2026-05-05 20:26 | 53.50469 | 18.13306 | 37884 ft | 407 kts | 257° |
| 2026-05-05 20:26 | 53.49162 | 18.04008 | 37886 ft | 407 kts | 257° |
| 2026-05-05 20:27 | 53.47848 | 17.94724 | 37876 ft | 407 kts | 257° |
| 2026-05-05 20:27 | 53.46533 | 17.85481 | 37876 ft | 407 kts | 257° |
| 2026-05-05 20:28 | 53.45415 | 17.77673 | 37874 ft | 407 kts | 257° |
| 2026-05-05 20:28 | 53.44081 | 17.68403 | 37875 ft | 407 kts | 257° |
| 2026-05-05 20:29 | 53.42739 | 17.59132 | 37873 ft | 407 kts | 257° |
| 2026-05-05 20:29 | 53.41396 | 17.49910 | 37877 ft | 407 kts | 257° |
| 2026-05-05 20:30 | 53.40041 | 17.40665 | 37875 ft | 407 kts | 256° |
| 2026-05-05 20:30 | 53.38672 | 17.31372 | 37877 ft | 407 kts | 256° |
| 2026-05-05 20:31 | 53.37311 | 17.22194 | 37875 ft | 407 kts | 256° |
| 2026-05-05 20:31 | 53.35927 | 17.12913 | 37870 ft | 406 kts | 256° |
| 2026-05-05 20:32 | 53.34556 | 17.03770 | 37869 ft | 406 kts | 256° |
| 2026-05-05 20:32 | 53.33166 | 16.94558 | 37868 ft | 406 kts | 256° |
| 2026-05-05 20:33 | 53.31769 | 16.85348 | 37862 ft | 406 kts | 256° |
| 2026-05-05 20:33 | 53.30368 | 16.76162 | 37859 ft | 406 kts | 256° |
| 2026-05-05 20:34 | 53.28950 | 16.66924 | 37859 ft | 405 kts | 256° |
| 2026-05-05 20:34 | 53.27526 | 16.57693 | 37864 ft | 405 kts | 256° |
| 2026-05-05 20:35 | 53.26084 | 16.48408 | 37857 ft | 405 kts | 256° |
| 2026-05-05 20:35 | 53.24659 | 16.39274 | 37863 ft | 405 kts | 256° |
| 2026-05-05 20:36 | 53.23226 | 16.30146 | 37853 ft | 405 kts | 256° |
| 2026-05-05 20:36 | 53.21790 | 16.21044 | 37850 ft | 406 kts | 255° |
| 2026-05-05 20:37 | 53.20336 | 16.11886 | 37856 ft | 406 kts | 255° |
| 2026-05-05 20:37 | 53.18877 | 16.02741 | 37857 ft | 406 kts | 255° |
| 2026-05-05 20:38 | 53.17408 | 15.93580 | 37853 ft | 406 kts | 255° |
| 2026-05-05 20:38 | 53.16184 | 15.85992 | 37853 ft | 406 kts | 255° |
| 2026-05-05 20:39 | 53.14716 | 15.76934 | 37855 ft | 406 kts | 255° |
| 2026-05-05 20:39 | 53.13233 | 15.67826 | 37850 ft | 406 kts | 255° |
| 2026-05-05 20:40 | 53.11746 | 15.58751 | 37853 ft | 406 kts | 255° |
| 2026-05-05 20:40 | 53.10224 | 15.49510 | 37852 ft | 406 kts | 255° |
| 2026-05-05 20:41 | 53.08724 | 15.40444 | 37854 ft | 406 kts | 255° |
| 2026-05-05 20:41 | 53.07208 | 15.31336 | 37855 ft | 406 kts | 254° |
| 2026-05-05 20:42 | 53.05671 | 15.22148 | 37857 ft | 406 kts | 254° |
| 2026-05-05 20:42 | 53.04129 | 15.12976 | 37851 ft | 406 kts | 254° |
| 2026-05-05 20:43 | 53.02557 | 15.03679 | 37856 ft | 406 kts | 254° |
| 2026-05-05 20:43 | 53.01014 | 14.94599 | 37852 ft | 406 kts | 254° |
| 2026-05-05 20:44 | 52.99452 | 14.85460 | 37847 ft | 406 kts | 254° |
| 2026-05-05 20:44 | 52.97905 | 14.76451 | 37845 ft | 405 kts | 253° |
| 2026-05-05 20:45 | 52.95559 | 14.62866 | 37845 ft | 405 kts | 253° |
| 2026-05-05 20:45 | 52.94001 | 14.53880 | 37843 ft | 405 kts | 253° |
| 2026-05-05 20:46 | 52.92438 | 14.44895 | 37845 ft | 405 kts | 253° |
| 2026-05-05 20:46 | 52.91124 | 14.37378 | 37847 ft | 405 kts | 253° |
| 2026-05-05 20:47 | 52.89701 | 14.28264 | 37846 ft | 406 kts | 261° |
| 2026-05-05 20:47 | 52.89109 | 14.18882 | 37845 ft | 407 kts | 263° |
| 2026-05-05 20:48 | 52.88573 | 14.09491 | 37845 ft | 407 kts | 263° |
| 2026-05-05 20:48 | 52.87992 | 14.00017 | 37843 ft | 407 kts | 262° |
| 2026-05-05 20:49 | 52.87400 | 13.90678 | 37844 ft | 407 kts | 262° |
| 2026-05-05 20:49 | 52.86787 | 13.81204 | 37845 ft | 407 kts | 262° |
| 2026-05-05 20:50 | 52.86174 | 13.71894 | 37848 ft | 408 kts | 262° |
| 2026-05-05 20:50 | 52.85547 | 13.62504 | 37853 ft | 408 kts | 262° |
| 2026-05-05 20:51 | 52.84912 | 13.53095 | 37850 ft | 408 kts | 262° |
| 2026-05-05 20:51 | 52.84261 | 13.43563 | 37851 ft | 409 kts | 262° |
| 2026-05-05 20:52 | 52.83606 | 13.34090 | 37851 ft | 409 kts | 262° |
| 2026-05-05 20:52 | 52.82951 | 13.24723 | 37851 ft | 409 kts | 262° |
| 2026-05-05 20:53 | 52.82286 | 13.15324 | 37848 ft | 410 kts | 261° |
| 2026-05-05 20:53 | 52.81616 | 13.05972 | 37851 ft | 410 kts | 261° |
| 2026-05-05 20:54 | 52.80933 | 12.96532 | 37856 ft | 410 kts | 261° |
| 2026-05-05 20:54 | 52.80247 | 12.87158 | 37853 ft | 411 kts | 261° |
| 2026-05-05 20:55 | 52.79553 | 12.77780 | 37855 ft | 411 kts | 261° |
| 2026-05-05 20:55 | 52.78955 | 12.69785 | 37860 ft | 411 kts | 261° |
| 2026-05-05 20:56 | 52.78242 | 12.60343 | 37854 ft | 412 kts | 261° |
| 2026-05-05 20:56 | 52.77526 | 12.50961 | 37861 ft | 412 kts | 261° |
| 2026-05-05 20:57 | 52.76796 | 12.41498 | 37865 ft | 412 kts | 261° |
| 2026-05-05 20:57 | 52.76060 | 12.32061 | 37861 ft | 412 kts | 261° |
| 2026-05-05 20:58 | 52.75314 | 12.22600 | 37866 ft | 412 kts | 261° |
| 2026-05-05 20:58 | 52.74567 | 12.13207 | 37863 ft | 412 kts | 260° |
| 2026-05-05 20:59 | 52.73812 | 12.03821 | 37863 ft | 413 kts | 260° |
| 2026-05-05 20:59 | 52.73042 | 11.94351 | 37863 ft | 413 kts | 260° |
| 2026-05-05 21:00 | 52.72271 | 11.84962 | 37863 ft | 413 kts | 260° |
| 2026-05-05 21:00 | 52.71493 | 11.75571 | 37864 ft | 413 kts | 260° |
| 2026-05-05 21:01 | 52.70699 | 11.66087 | 37859 ft | 413 kts | 260° |
| 2026-05-05 21:01 | 52.69885 | 11.56462 | 37870 ft | 414 kts | 259° |
| 2026-05-05 21:02 | 52.69080 | 11.47036 | 37869 ft | 414 kts | 259° |
| 2026-05-05 21:02 | 52.68266 | 11.37601 | 37863 ft | 414 kts | 259° |
| 2026-05-05 21:03 | 52.67444 | 11.28152 | 37872 ft | 415 kts | 259° |
| 2026-05-05 21:03 | 52.66613 | 11.18698 | 37869 ft | 415 kts | 259° |
| 2026-05-05 21:04 | 52.65775 | 11.09250 | 37867 ft | 415 kts | 259° |
| 2026-05-05 21:04 | 52.64922 | 10.99723 | 37875 ft | 416 kts | 259° |
| 2026-05-05 21:05 | 52.64209 | 10.91837 | 37867 ft | 418 kts | 259° |
| 2026-05-05 21:05 | 52.63346 | 10.82350 | 37867 ft | 416 kts | 259° |
| 2026-05-05 21:06 | 52.62474 | 10.72868 | 37870 ft | 418 kts | 259° |
| 2026-05-05 21:06 | 52.61590 | 10.63342 | 37861 ft | 418 kts | 259° |
| 2026-05-05 21:07 | 52.60705 | 10.53877 | 37871 ft | 418 kts | 258° |
| 2026-05-05 21:07 | 52.59802 | 10.44316 | 37868 ft | 419 kts | 258° |
| 2026-05-05 21:08 | 52.58868 | 10.34517 | 37864 ft | 420 kts | 258° |
| 2026-05-05 21:08 | 52.57941 | 10.24876 | 37870 ft | 421 kts | 258° |
| 2026-05-05 21:09 | 52.57011 | 10.15283 | 37857 ft | 422 kts | 258° |
| 2026-05-05 21:09 | 52.56077 | 10.05733 | 37857 ft | 422 kts | 258° |
| 2026-05-05 21:10 | 52.55133 | 9.96164 | 37869 ft | 423 kts | 258° |
| 2026-05-05 21:10 | 52.54180 | 9.86588 | 37854 ft | 423 kts | 258° |
| 2026-05-05 21:11 | 52.53211 | 9.76940 | 37858 ft | 423 kts | 258° |
| 2026-05-05 21:11 | 52.52234 | 9.67280 | 37868 ft | 424 kts | 258° |
| 2026-05-05 21:12 | 52.51405 | 9.59156 | 37860 ft | 424 kts | 258° |
| 2026-05-05 21:12 | 52.50416 | 9.49545 | 37863 ft | 424 kts | 258° |
| 2026-05-05 21:13 | 52.49407 | 9.39811 | 37856 ft | 424 kts | 258° |
| 2026-05-05 21:13 | 52.48406 | 9.30231 | 37856 ft | 424 kts | 258° |
| 2026-05-05 21:14 | 52.47392 | 9.20610 | 37857 ft | 425 kts | 258° |
| 2026-05-05 21:14 | 52.46382 | 9.11104 | 37857 ft | 425 kts | 258° |
| 2026-05-05 21:15 | 52.45361 | 9.01577 | 37856 ft | 425 kts | 257° |
| 2026-05-05 21:15 | 52.44328 | 8.92000 | 37857 ft | 425 kts | 257° |
| 2026-05-05 21:16 | 52.43285 | 8.82419 | 37855 ft | 426 kts | 257° |
| 2026-05-05 21:16 | 52.42213 | 8.72644 | 37860 ft | 426 kts | 257° |
| 2026-05-05 21:17 | 52.41147 | 8.62998 | 37860 ft | 426 kts | 257° |
| 2026-05-05 21:17 | 52.40068 | 8.53324 | 37861 ft | 427 kts | 257° |
| 2026-05-05 21:18 | 52.38985 | 8.43675 | 37857 ft | 427 kts | 257° |
| 2026-05-05 21:18 | 52.37901 | 8.34091 | 37858 ft | 427 kts | 257° |
| 2026-05-05 21:19 | 52.36814 | 8.24563 | 37860 ft | 428 kts | 257° |
| 2026-05-05 21:19 | 52.35713 | 8.14975 | 37857 ft | 428 kts | 257° |
| 2026-05-05 21:20 | 52.34594 | 8.05310 | 37860 ft | 429 kts | 257° |
| 2026-05-05 21:20 | 52.33461 | 7.95604 | 37867 ft | 429 kts | 257° |
| 2026-05-05 21:21 | 52.32335 | 7.86015 | 37861 ft | 429 kts | 257° |
| 2026-05-05 21:21 | 52.31388 | 7.78014 | 37870 ft | 429 kts | 257° |
| 2026-05-05 21:22 | 52.30238 | 7.68359 | 37860 ft | 429 kts | 257° |
| 2026-05-05 21:22 | 52.29086 | 7.58753 | 37859 ft | 430 kts | 257° |
| 2026-05-05 21:23 | 52.27933 | 7.49217 | 37870 ft | 430 kts | 257° |
| 2026-05-05 21:23 | 52.26753 | 7.39517 | 37870 ft | 430 kts | 256° |
| 2026-05-05 21:24 | 52.25554 | 7.29742 | 37868 ft | 430 kts | 256° |
| 2026-05-05 21:24 | 52.24372 | 7.20143 | 37861 ft | 430 kts | 256° |
| 2026-05-05 21:25 | 52.23185 | 7.10533 | 37870 ft | 430 kts | 256° |
| 2026-05-05 21:25 | 52.22366 | 7.00901 | 37864 ft | 434 kts | 270° |
| 2026-05-05 21:26 | 52.22830 | 6.95935 | 37860 ft | 438 kts | 283° |
| 2026-05-05 21:26 | 52.23961 | 6.91298 | 37857 ft | 442 kts | 296° |
| 2026-05-05 21:26 | 52.25707 | 6.87146 | 37861 ft | 447 kts | 308° |
| 2026-05-05 21:26 | 52.27866 | 6.83448 | 37861 ft | 449 kts | 312° |
| 2026-05-05 21:27 | 52.32197 | 6.76044 | 37869 ft | 448 kts | 308° |
| 2026-05-05 21:27 | 52.36236 | 6.68261 | 37881 ft | 448 kts | 306° |
| 2026-05-05 21:28 | 52.40191 | 6.60291 | 37895 ft | 448 kts | 306° |
| 2026-05-05 21:28 | 52.44109 | 6.52325 | 37900 ft | 448 kts | 304° |
| 2026-05-05 21:29 | 52.45733 | 6.48058 | 37902 ft | 443 kts | 292° |
| 2026-05-05 21:29 | 52.46805 | 6.43336 | 37901 ft | 438 kts | 281° |
| 2026-05-05 21:29 | 52.47523 | 6.33542 | 37901 ft | 434 kts | 272° |
| 2026-05-05 21:30 | 52.48022 | 6.23577 | 37908 ft | 435 kts | 272° |
| 2026-05-05 21:30 | 52.48510 | 6.13676 | 37906 ft | 435 kts | 272° |
| 2026-05-05 21:31 | 52.48986 | 6.03748 | 37912 ft | 435 kts | 272° |
| 2026-05-05 21:31 | 52.49455 | 5.93817 | 37911 ft | 435 kts | 272° |
| 2026-05-05 21:32 | 52.49916 | 5.83888 | 37911 ft | 434 kts | 272° |
| 2026-05-05 21:32 | 52.50368 | 5.73958 | 37914 ft | 434 kts | 272° |
| 2026-05-05 21:33 | 52.50812 | 5.64001 | 37912 ft | 434 kts | 271° |
| 2026-05-05 21:33 | 52.50686 | 5.59100 | 37910 ft | 430 kts | 258° |
| 2026-05-05 21:33 | 52.49889 | 5.54377 | 37913 ft | 427 kts | 245° |
| 2026-05-05 21:34 | 52.48466 | 5.50107 | 37897 ft | 424 kts | 234° |
| 2026-05-05 21:34 | 52.46716 | 5.46184 | 37894 ft | 424 kts | 232° |
| 2026-05-05 21:34 | 52.43737 | 5.39803 | 37896 ft | 425 kts | 232° |
| 2026-05-05 21:35 | 52.40740 | 5.33182 | 37899 ft | 425 kts | 233° |
| 2026-05-05 21:35 | 52.37234 | 5.25262 | 37901 ft | 426 kts | 233° |
| 2026-05-05 21:36 | 52.33769 | 5.17413 | 37906 ft | 427 kts | 233° |
| 2026-05-05 21:36 | 52.30251 | 5.09384 | 37900 ft | 428 kts | 238° |
| 2026-05-05 21:37 | 52.28972 | 5.05033 | 37902 ft | 429 kts | 250° |
| 2026-05-05 21:37 | 52.28312 | 5.00176 | 37903 ft | 432 kts | 263° |
| 2026-05-05 21:37 | 52.28340 | 4.95305 | 37904 ft | 435 kts | 276° |
| 2026-05-05 21:37 | 52.29061 | 4.90407 | 37898 ft | 439 kts | 288° |
| 2026-05-05 21:38 | 52.30409 | 4.85967 | 37900 ft | 443 kts | 301° |
| 2026-05-05 21:38 | 52.32394 | 4.81983 | 37900 ft | 448 kts | 314° |
| 2026-05-05 21:38 | 52.34854 | 4.78825 | 37899 ft | 452 kts | 327° |
| 2026-05-05 21:38 | 52.37687 | 4.76601 | 37903 ft | 456 kts | 339° |
| 2026-05-05 21:39 | 52.40846 | 4.75397 | 37902 ft | 459 kts | 352° |
| 2026-05-05 21:39 | 52.44053 | 4.75339 | 37909 ft | 462 kts | 5° |
| 2026-05-05 21:39 | 52.47176 | 4.76381 | 37912 ft | 464 kts | 16° |
| 2026-05-05 21:39 | 52.50283 | 4.77978 | 37913 ft | 465 kts | 15° |
| 2026-05-05 21:40 | 52.56566 | 4.80828 | 37930 ft | 466 kts | 14° |
| 2026-05-05 21:40 | 52.62838 | 4.83682 | 37945 ft | 467 kts | 14° |
| 2026-05-05 21:41 | 52.69071 | 4.86531 | 37934 ft | 465 kts | 14° |
| 2026-05-05 21:41 | 52.75339 | 4.89408 | 37938 ft | 466 kts | 14° |
| 2026-05-05 21:42 | 52.81575 | 4.92282 | 37939 ft | 466 kts | 14° |
| 2026-05-05 21:42 | 52.87815 | 4.95174 | 37940 ft | 467 kts | 14° |
| 2026-05-05 21:43 | 52.94107 | 4.98104 | 37938 ft | 467 kts | 14° |
| 2026-05-05 21:43 | 53.00391 | 5.01046 | 37937 ft | 467 kts | 14° |
| 2026-05-05 21:44 | 53.06723 | 5.04021 | 37939 ft | 468 kts | 14° |
| 2026-05-05 21:44 | 53.12969 | 5.06973 | 37937 ft | 468 kts | 14° |
| 2026-05-05 21:45 | 53.19262 | 5.09964 | 37940 ft | 469 kts | 14° |
| 2026-05-05 21:45 | 53.25505 | 5.12956 | 37936 ft | 469 kts | 14° |
| 2026-05-05 21:46 | 53.31792 | 5.15989 | 37941 ft | 470 kts | 14° |
| 2026-05-05 21:46 | 53.38085 | 5.19048 | 37951 ft | 471 kts | 14° |
| 2026-05-05 21:47 | 53.44388 | 5.22128 | 37963 ft | 471 kts | 14° |
| 2026-05-05 21:47 | 53.50700 | 5.25234 | 37971 ft | 472 kts | 14° |
| 2026-05-05 21:48 | 53.56982 | 5.28342 | 37972 ft | 472 kts | 14° |
| 2026-05-05 21:48 | 53.63289 | 5.31482 | 37972 ft | 473 kts | 14° |
| 2026-05-05 21:49 | 53.69624 | 5.34660 | 37972 ft | 473 kts | 14° |
| 2026-05-05 21:49 | 53.75923 | 5.37845 | 37971 ft | 474 kts | 14° |
| 2026-05-05 21:50 | 53.82247 | 5.41070 | 37968 ft | 474 kts | 14° |
| 2026-05-05 21:50 | 53.88541 | 5.44306 | 37970 ft | 474 kts | 14° |
| 2026-05-05 21:51 | 53.94892 | 5.47598 | 37974 ft | 474 kts | 14° |
| 2026-05-05 21:51 | 54.01173 | 5.50871 | 37972 ft | 473 kts | 14° |
| 2026-05-05 21:52 | 54.10628 | 5.55831 | 37968 ft | 472 kts | 14° |
| 2026-05-05 21:53 | 54.16895 | 5.59142 | 37981 ft | 472 kts | 14° |
| 2026-05-05 21:53 | 54.22129 | 5.61922 | 37969 ft | 472 kts | 14° |
| 2026-05-05 21:54 | 54.28386 | 5.65256 | 37973 ft | 471 kts | 14° |
| 2026-05-05 21:54 | 54.34626 | 5.68591 | 37962 ft | 471 kts | 14° |
| 2026-05-05 21:55 | 54.40859 | 5.71933 | 37969 ft | 471 kts | 14° |
| 2026-05-05 21:55 | 54.47105 | 5.75294 | 37962 ft | 470 kts | 14° |
| 2026-05-05 21:56 | 54.53367 | 5.78674 | 37963 ft | 470 kts | 14° |
| 2026-05-05 21:56 | 54.59595 | 5.82050 | 37964 ft | 471 kts | 14° |
| 2026-05-05 21:57 | 54.65867 | 5.85463 | 37964 ft | 471 kts | 14° |
| 2026-05-05 21:57 | 54.72106 | 5.88870 | 37963 ft | 471 kts | 14° |
| 2026-05-05 21:58 | 54.78376 | 5.92307 | 37968 ft | 472 kts | 14° |
| 2026-05-05 21:58 | 54.84667 | 5.95769 | 37969 ft | 472 kts | 14° |
| 2026-05-05 21:59 | 54.90940 | 5.99239 | 37974 ft | 473 kts | 15° |
| 2026-05-05 21:59 | 54.97196 | 6.02715 | 37979 ft | 473 kts | 15° |
| 2026-05-05 22:00 | 55.03453 | 6.06204 | 37977 ft | 474 kts | 15° |
| 2026-05-05 22:00 | 55.09762 | 6.09738 | 37986 ft | 474 kts | 15° |
| 2026-05-05 22:01 | 55.16016 | 6.13256 | 37994 ft | 474 kts | 15° |
| 2026-05-05 22:01 | 55.22310 | 6.16810 | 37995 ft | 474 kts | 15° |
| 2026-05-05 22:02 | 55.28547 | 6.20349 | 37987 ft | 471 kts | 15° |
| 2026-05-05 22:02 | 55.34764 | 6.23893 | 37992 ft | 471 kts | 15° |
| 2026-05-05 22:03 | 55.41019 | 6.27475 | 37999 ft | 471 kts | 15° |
| 2026-05-05 22:03 | 55.47270 | 6.31073 | 37988 ft | 471 kts | 15° |
| 2026-05-05 22:04 | 55.53489 | 6.34672 | 37986 ft | 471 kts | 15° |
| 2026-05-05 22:04 | 55.59695 | 6.38285 | 37998 ft | 471 kts | 15° |
| 2026-05-05 22:05 | 55.65944 | 6.41941 | 38023 ft | 471 kts | 15° |
| 2026-05-05 22:05 | 55.72192 | 6.45623 | 38002 ft | 472 kts | 15° |
| 2026-05-05 22:06 | 55.78389 | 6.49297 | 38001 ft | 471 kts | 15° |
| 2026-05-05 22:06 | 55.84607 | 6.53002 | 38002 ft | 471 kts | 15° |
| 2026-05-05 22:07 | 55.90892 | 6.56769 | 38006 ft | 471 kts | 15° |
| 2026-05-05 22:07 | 55.97124 | 6.60518 | 38003 ft | 471 kts | 15° |
| 2026-05-05 22:08 | 56.03361 | 6.64296 | 38001 ft | 471 kts | 15° |
| 2026-05-05 22:08 | 56.09590 | 6.68086 | 37998 ft | 471 kts | 15° |
| 2026-05-05 22:09 | 56.15808 | 6.71894 | 37998 ft | 471 kts | 15° |
| 2026-05-05 22:09 | 56.22028 | 6.75718 | 38003 ft | 471 kts | 15° |
| 2026-05-05 22:10 | 56.28217 | 6.79540 | 38005 ft | 471 kts | 15° |
| 2026-05-05 22:10 | 56.34452 | 6.83406 | 38000 ft | 471 kts | 15° |
| 2026-05-05 22:11 | 56.40673 | 6.87280 | 37999 ft | 472 kts | 15° |
| 2026-05-05 22:11 | 56.46886 | 6.91166 | 38004 ft | 472 kts | 15° |
| 2026-05-05 22:12 | 56.53146 | 6.95103 | 38007 ft | 473 kts | 15° |
| 2026-05-05 22:12 | 56.59395 | 6.99052 | 38008 ft | 473 kts | 15° |
| 2026-05-05 22:13 | 56.65604 | 7.02998 | 38010 ft | 473 kts | 15° |
| 2026-05-05 22:13 | 56.71839 | 7.06981 | 38008 ft | 474 kts | 15° |